Time;durP1;ratioP1;P1;durP2;ratioP2;P2;SDS_P1;SDS_P2;PMS_P1;PMS_P2;Temp;Humidity;BMP_temperature;BMP_pressure;BME280_temperature;BME280_humidity;BME280_pressure;Samples;Min_cycle;Max_cycle;Signal;HPM_P1;HPM_P2
2021/11/24 00:00:33;;;;;;;8.68;3.75;;;;;;;;;;4991789;28;20049;-53
2021/11/24 00:03:00;;;;;;;10.02;3.63;;;;;;;;;;4989263;28;20045;-54
2021/11/24 00:05:29;;;;;;;7.30;3.80;;;;;;;;;;4998356;28;20120;-51
2021/11/24 00:07:59;;;;;;;8.57;3.35;;;;;;;;;;5004146;28;20042;-53
2021/11/24 00:10:29;;;;;;;7.90;3.58;;;;;;;;;;5002857;28;20030;-55
2021/11/24 00:12:55;;;;;;;7.20;3.03;;;;;;;;;;5005099;28;20061;-55
2021/11/24 00:15:22;;;;;;;9.55;4.35;;;;;;;;;;4975415;28;20054;-55
2021/11/24 00:17:49;;;;;;;9.10;4.55;;;;;;;;;;5006766;28;20026;-52
2021/11/24 00:20:15;;;;;;;9.32;4.13;;;;;;;;;;5021890;28;20030;-54
2021/11/24 00:22:43;;;;;;;12.27;5.15;;;;;;;;;;5009639;28;20029;-53
2021/11/24 00:25:12;;;;;;;11.90;5.22;;;;;;;;;;5007861;28;20037;-55
2021/11/24 00:27:38;;;;;;;;;;;;;;;;;;5003326;28;20052;-55
2021/11/24 00:30:06;;;;;;;8.25;4.00;;;;;;;;;;5004124;28;19929;-55
2021/11/24 00:32:33;;;;;;;10.25;4.70;;;;;;;;;;5037037;28;20041;-53
2021/11/24 00:34:59;;;;;;;9.10;4.38;;;;;;;;;;5005903;28;20117;-51
2021/11/24 00:37:26;;;;;;;9.50;4.38;;;;;;;;;;5016227;28;20060;-53
2021/11/24 00:39:53;;;;;;;10.07;5.00;;;;;;;;;;5024081;28;20052;-54
2021/11/24 00:42:21;;;;;;;9.25;4.13;;;;;;;;;;5008707;28;20056;-54
2021/11/24 00:44:47;;;;;;;10.13;4.43;;;;;;;;;;5005774;28;20049;-56
2021/11/24 00:47:13;;;;;;;9.75;4.78;;;;;;;;;;5002263;28;20353;-56
2021/11/24 00:49:40;;;;;;;19.88;7.20;;;;;;;;;;5006022;28;20072;-56
2021/11/24 00:52:07;;;;;;;11.50;5.57;;;;;;;;;;5000975;28;20049;-53
2021/11/24 00:54:34;;;;;;;9.50;4.80;;;;;;;;;;5005681;28;20037;-56
2021/11/24 00:57:00;;;;;;;9.85;4.80;;;;;;;;;;5002564;28;20049;-57
2021/11/24 00:59:29;;;;;;;12.07;5.22;;;;;;;;;;5005394;28;20052;-57
2021/11/24 01:01:55;;;;;;;12.00;4.70;;;;;;;;;;5001878;28;20052;-56
2021/11/24 01:04:21;;;;;;;11.05;4.82;;;;;;;;;;5003804;28;20050;-56
2021/11/24 01:06:48;;;;;;;10.68;4.95;;;;;;;;;;5004896;28;20042;-54
2021/11/24 01:09:15;;;;;;;9.77;4.95;;;;;;;;;;4999771;28;20042;-55
2021/11/24 01:11:43;;;;;;;12.23;5.30;;;;;;;;;;4999615;28;20030;-56
2021/11/24 01:14:10;;;;;;;9.80;4.50;;;;;;;;;;5019524;28;20128;-56
2021/11/24 01:16:38;;;;;;;11.20;4.85;;;;;;;;;;5005802;28;20042;-55
2021/11/24 01:19:05;;;;;;;10.27;5.10;;;;;;;;;;5020666;28;20074;-57
2021/11/24 01:21:31;;;;;;;13.43;5.43;;;;;;;;;;5001190;28;20038;-55
2021/11/24 01:23:58;;;;;;;11.20;4.35;;;;;;;;;;4999842;28;20061;-52
2021/11/24 01:26:24;;;;;;;11.05;4.95;;;;;;;;;;5023733;28;20060;-57
2021/11/24 01:28:51;;;;;;;14.57;6.20;;;;;;;;;;5001180;28;20619;-56
2021/11/24 01:31:19;;;;;;;10.98;4.95;;;;;;;;;;5004134;28;20042;-55
2021/11/24 01:33:46;;;;;;;10.00;4.70;;;;;;;;;;5004098;28;20062;-52
2021/11/24 01:36:13;;;;;;;15.07;6.25;;;;;;;;;;4980096;28;20057;-53
2021/11/24 01:38:40;;;;;;;15.48;6.00;;;;;;;;;;4991746;28;20037;-54
2021/11/24 01:41:06;;;;;;;11.50;4.95;;;;;;;;;;5020773;28;20050;-52
2021/11/24 01:43:33;;;;;;;12.95;5.28;;;;;;;;;;5013823;28;20037;-55
2021/11/24 01:45:59;;;;;;;12.50;5.75;;;;;;;;;;5025536;28;20048;-56
2021/11/24 01:48:26;;;;;;;10.07;4.90;;;;;;;;;;5027857;28;20048;-55
2021/11/24 01:50:54;;;;;;;12.45;6.00;;;;;;;;;;5016842;28;20048;-52
2021/11/24 01:53:21;;;;;;;16.48;5.90;;;;;;;;;;5023524;28;20041;-53
2021/11/24 01:55:47;;;;;;;10.77;5.00;;;;;;;;;;5004494;28;20049;-55
2021/11/24 01:58:14;;;;;;;15.88;6.10;;;;;;;;;;5004976;28;20058;-54
2021/11/24 02:00:42;;;;;;;12.75;5.47;;;;;;;;;;5019802;28;20050;-55
2021/11/24 02:03:09;;;;;;;10.25;4.88;;;;;;;;;;4994406;28;20054;-56
2021/11/24 02:05:35;;;;;;;11.00;4.70;;;;;;;;;;4989757;28;20145;-53
2021/11/24 02:08:03;;;;;;;10.32;4.53;;;;;;;;;;5004948;28;20042;-56
2021/11/24 02:10:30;;;;;;;11.80;4.68;;;;;;;;;;5008260;28;20173;-55
2021/11/24 02:12:56;;;;;;;10.75;5.22;;;;;;;;;;4998572;28;20042;-55
2021/11/24 02:15:23;;;;;;;10.55;4.90;;;;;;;;;;4994727;28;20094;-56
2021/11/24 02:17:50;;;;;;;9.50;5.07;;;;;;;;;;4984143;28;20053;-57
2021/11/24 02:20:18;;;;;;;12.00;5.07;;;;;;;;;;4985400;28;20052;-54
2021/11/24 02:22:44;;;;;;;11.43;5.20;;;;;;;;;;5004691;28;20041;-52
2021/11/24 02:25:14;;;;;;;13.20;4.78;;;;;;;;;;4999495;28;20397;-56
2021/11/24 02:27:41;;;;;;;10.98;5.45;;;;;;;;;;5004983;28;20029;-54
2021/11/24 02:30:07;;;;;;;12.68;5.88;;;;;;;;;;4999379;28;20042;-52
2021/11/24 02:32:34;;;;;;;11.63;5.50;;;;;;;;;;5003100;28;20060;-57
2021/11/24 02:35:00;;;;;;;10.15;5.32;;;;;;;;;;5004659;28;20070;-55
2021/11/24 02:37:29;;;;;;;11.30;5.82;;;;;;;;;;5001621;28;20038;-54
2021/11/24 02:39:55;;;;;;;10.48;4.68;;;;;;;;;;5005818;28;20042;-56
2021/11/24 02:42:21;;;;;;;10.40;4.78;;;;;;;;;;4988632;28;20128;-55
2021/11/24 02:44:48;;;;;;;10.02;4.90;;;;;;;;;;4988212;28;20128;-55
2021/11/24 02:47:15;;;;;;;6.68;3.65;;;;;;;;;;4996816;28;20045;-56
2021/11/24 02:49:44;;;;;;;11.70;4.88;;;;;;;;;;5004852;28;20120;-53
2021/11/24 02:52:11;;;;;;;9.00;4.63;;;;;;;;;;5001705;28;20037;-55
2021/11/24 02:54:40;;;;;;;9.77;4.18;;;;;;;;;;5005975;28;20038;-53
2021/11/24 02:57:08;;;;;;;9.23;4.60;;;;;;;;;;5002305;28;20045;-56
2021/11/24 02:59:37;;;;;;;11.05;5.38;;;;;;;;;;5005652;28;20034;-54
2021/11/24 03:02:03;;;;;;;10.05;5.20;;;;;;;;;;5002487;28;20048;-57
2021/11/24 03:04:31;;;;;;;11.27;5.25;;;;;;;;;;5003006;28;20141;-54
2021/11/24 03:06:58;;;;;;;11.63;5.25;;;;;;;;;;5014086;28;20038;-56
2021/11/24 03:09:25;;;;;;;11.02;4.75;;;;;;;;;;4988842;28;20045;-56
2021/11/24 03:11:53;;;;;;;9.88;4.22;;;;;;;;;;4987793;28;20038;-55
2021/11/24 03:14:20;;;;;;;9.77;4.28;;;;;;;;;;4990006;28;20112;-53
2021/11/24 03:16:46;;;;;;;10.02;4.90;;;;;;;;;;4988992;28;20046;-56
2021/11/24 03:19:13;;;;;;;11.30;5.22;;;;;;;;;;5000802;28;20066;-55
2021/11/24 03:21:39;;;;;;;12.63;5.32;;;;;;;;;;5023936;28;20041;-54
2021/11/24 03:24:06;;;;;;;10.98;5.63;;;;;;;;;;4987837;28;20038;-53
2021/11/24 03:26:33;;;;;;;11.82;5.28;;;;;;;;;;4987923;28;20049;-55
2021/11/24 03:29:03;;;;;;;11.90;5.15;;;;;;;;;;4984303;28;20054;-52
2021/11/24 03:31:29;;;;;;;11.20;5.25;;;;;;;;;;4985407;28;20061;-56
2021/11/24 03:33:56;;;;;;;9.98;5.38;;;;;;;;;;4994709;28;20046;-51
2021/11/24 03:36:22;;;;;;;13.05;5.45;;;;;;;;;;5006406;28;20045;-56
2021/11/24 03:38:49;;;;;;;11.27;5.35;;;;;;;;;;5009972;28;20042;-54
2021/11/24 03:41:15;;;;;;;10.57;4.97;;;;;;;;;;5003720;28;20042;-54
2021/11/24 03:43:42;;;;;;;10.50;4.95;;;;;;;;;;4988652;28;20034;-55
2021/11/24 03:46:09;;;;;;;12.20;5.10;;;;;;;;;;5006075;28;20038;-54
2021/11/24 03:48:37;;;;;;;15.07;6.05;;;;;;;;;;4999012;28;20033;-54
2021/11/24 03:51:04;;;;;;;11.20;5.20;;;;;;;;;;4984555;28;20038;-54
2021/11/24 03:53:30;;;;;;;10.32;4.95;;;;;;;;;;4983954;28;20034;-52
2021/11/24 03:55:57;;;;;;;11.93;5.43;;;;;;;;;;5004308;28;20038;-56
2021/11/24 03:58:23;;;;;;;10.27;5.30;;;;;;;;;;5023787;28;20056;-54
2021/11/24 04:00:50;;;;;;;11.90;5.50;;;;;;;;;;4983614;28;20096;-57
2021/11/24 04:03:18;;;;;;;12.00;5.20;;;;;;;;;;5002821;28;20045;-56
2021/11/24 04:05:44;;;;;;;13.23;5.80;;;;;;;;;;5009384;28;20034;-54
2021/11/24 04:08:11;;;;;;;11.45;5.57;;;;;;;;;;5023794;28;20045;-57
2021/11/24 04:10:37;;;;;;;11.55;5.30;;;;;;;;;;4989876;28;20046;-53
2021/11/24 04:13:04;;;;;;;13.50;5.63;;;;;;;;;;4999713;28;20046;-52
2021/11/24 04:15:30;;;;;;;13.18;5.90;;;;;;;;;;5020035;28;20038;-54
2021/11/24 04:17:58;;;;;;;8.63;4.28;;;;;;;;;;5023718;28;20053;-53
2021/11/24 04:20:26;;;;;;;10.98;4.57;;;;;;;;;;4992383;28;20034;-56
2021/11/24 04:22:52;;;;;;;15.45;5.15;;;;;;;;;;4985986;28;20077;-57
2021/11/24 04:25:19;;;;;;;9.65;4.78;;;;;;;;;;4989471;28;20233;-55
2021/11/24 04:27:46;;;;;;;11.93;5.35;;;;;;;;;;5006734;28;20041;-55
2021/11/24 04:30:13;;;;;;;10.30;4.97;;;;;;;;;;5018021;28;20053;-55
2021/11/24 04:32:40;;;;;;;8.80;4.00;;;;;;;;;;5005275;28;20033;-56
2021/11/24 04:35:07;;;;;;;11.52;5.13;;;;;;;;;;5003144;28;20119;-55
2021/11/24 04:37:35;;;;;;;9.23;4.03;;;;;;;;;;5025850;28;20042;-57
2021/11/24 04:40:02;;;;;;;9.43;4.57;;;;;;;;;;5008121;28;20046;-57
2021/11/24 04:42:28;;;;;;;9.73;4.45;;;;;;;;;;5002893;28;20058;-55
2021/11/24 04:44:55;;;;;;;12.45;5.10;;;;;;;;;;5004473;28;20069;-52
2021/11/24 04:47:21;;;;;;;11.68;5.65;;;;;;;;;;4986550;28;20038;-53
2021/11/24 04:49:48;;;;;;;9.32;4.53;;;;;;;;;;5003596;28;20038;-58
2021/11/24 04:52:15;;;;;;;13.98;5.57;;;;;;;;;;4995549;28;20055;-55
2021/11/24 04:54:43;;;;;;;13.57;5.75;;;;;;;;;;5005484;28;20041;-54
2021/11/24 04:57:10;;;;;;;12.82;5.53;;;;;;;;;;4999528;28;20103;-57
2021/11/24 04:59:37;;;;;;;12.43;5.68;;;;;;;;;;5005990;28;20053;-55
2021/11/24 05:02:04;;;;;;;11.98;4.60;;;;;;;;;;5007907;28;20049;-52
2021/11/24 05:04:30;;;;;;;12.57;5.70;;;;;;;;;;4985270;28;20042;-54
2021/11/24 05:06:57;;;;;;;14.25;5.90;;;;;;;;;;4982360;28;20073;-55
2021/11/24 05:09:25;;;;;;;11.07;5.25;;;;;;;;;;5001622;28;20046;-56
2021/11/24 05:11:53;;;;;;;10.55;5.05;;;;;;;;;;4985891;28;20052;-55
2021/11/24 05:14:23;;;;;;;9.63;4.78;;;;;;;;;;5004730;28;20101;-53
2021/11/24 05:16:50;;;;;;;10.63;4.75;;;;;;;;;;5000126;28;20046;-55
2021/11/24 05:19:20;;;;;;;10.73;4.82;;;;;;;;;;4986396;28;20077;-58
2021/11/24 05:21:49;;;;;;;10.80;5.32;;;;;;;;;;4982263;28;20082;-55
2021/11/24 05:24:16;;;;;;;16.60;5.18;;;;;;;;;;5003403;28;20052;-55
2021/11/24 05:26:42;;;;;;;11.60;4.90;;;;;;;;;;4984766;28;20046;-56
2021/11/24 05:29:10;;;;;;;9.50;4.60;;;;;;;;;;5000934;28;20049;-56
2021/11/24 05:31:37;;;;;;;9.48;4.47;;;;;;;;;;5001731;28;20038;-56
2021/11/24 05:34:04;;;;;;;9.20;4.22;;;;;;;;;;4997985;28;20123;-54
2021/11/24 05:36:30;;;;;;;8.65;4.22;;;;;;;;;;5003567;28;20038;-53
2021/11/24 05:38:58;;;;;;;8.75;4.15;;;;;;;;;;4999164;28;20047;-53
2021/11/24 05:41:25;;;;;;;11.13;4.43;;;;;;;;;;5020823;28;20045;-54
2021/11/24 05:43:56;;;;;;;7.80;3.35;;;;;;;;;;4989947;28;20034;-53
2021/11/24 05:46:29;;;;;;;10.45;4.68;;;;;;;;;;4985554;28;20049;-58
2021/11/24 05:48:57;;;;;;;7.30;3.20;;;;;;;;;;4988967;28;20038;-53
2021/11/24 05:51:23;;;;;;;9.27;4.22;;;;;;;;;;5019924;28;20056;-56
2021/11/24 05:53:50;;;;;;;9.68;4.18;;;;;;;;;;5001966;28;20044;-55
2021/11/24 05:56:16;;;;;;;10.02;4.38;;;;;;;;;;5023105;28;20033;-55
2021/11/24 05:58:43;;;;;;;7.00;3.70;;;;;;;;;;4997943;28;20058;-57
2021/11/24 06:01:09;;;;;;;8.60;4.07;;;;;;;;;;4986887;28;20038;-57
2021/11/24 06:03:37;;;;;;;10.35;4.70;;;;;;;;;;4980304;28;20050;-56
2021/11/24 06:06:04;;;;;;;10.73;4.30;;;;;;;;;;4976691;28;20109;-57
2021/11/24 06:08:30;;;;;;;10.45;3.90;;;;;;;;;;4981344;28;20049;-55
2021/11/24 06:10:57;;;;;;;10.18;4.95;;;;;;;;;;4980644;28;20051;-53
2021/11/24 06:13:23;;;;;;;11.43;4.88;;;;;;;;;;4987795;28;20142;-52
2021/11/24 06:15:50;;;;;;;11.00;5.15;;;;;;;;;;4987938;28;20046;-57
2021/11/24 06:18:19;;;;;;;10.07;4.57;;;;;;;;;;4990788;28;20057;-54
2021/11/24 06:20:47;;;;;;;11.32;5.22;;;;;;;;;;4987933;28;20037;-53
2021/11/24 06:23:14;;;;;;;10.40;5.22;;;;;;;;;;4996442;28;20042;-52
2021/11/24 06:25:40;;;;;;;13.13;5.68;;;;;;;;;;4989937;28;20050;-54
2021/11/24 06:28:07;;;;;;;11.45;5.43;;;;;;;;;;4988146;28;20046;-53
2021/11/24 06:30:33;;;;;;;10.60;4.90;;;;;;;;;;4989018;28;20049;-55
2021/11/24 06:33:00;;;;;;;11.15;4.80;;;;;;;;;;4993304;28;20065;-54
2021/11/24 06:35:27;;;;;;;11.25;5.10;;;;;;;;;;4988244;28;20072;-51
2021/11/24 06:37:55;;;;;;;11.63;4.95;;;;;;;;;;4996273;28;20042;-58
2021/11/24 06:40:21;;;;;;;8.98;4.38;;;;;;;;;;5001230;28;20061;-55
2021/11/24 06:42:48;;;;;;;9.65;4.88;;;;;;;;;;4998133;28;20046;-56
2021/11/24 06:45:14;;;;;;;12.00;5.60;;;;;;;;;;4985931;28;20038;-55
2021/11/24 06:47:43;;;;;;;11.05;5.30;;;;;;;;;;4990414;28;20120;-56
2021/11/24 06:50:09;;;;;;;;;;;;;;;;;;5003199;28;20042;-54
2021/11/24 06:52:36;;;;;;;9.23;4.22;;;;;;;;;;4988847;28;20001;-55
2021/11/24 06:55:05;;;;;;;11.60;5.43;;;;;;;;;;5014405;28;20299;-54
2021/11/24 06:57:33;;;;;;;;;;;;;;;;;;4988438;28;20057;-54
2021/11/24 07:00:00;;;;;;;11.73;5.65;;;;;;;;;;4989693;28;19929;-57
2021/11/24 07:02:26;;;;;;;13.13;5.95;;;;;;;;;;4997063;28;20045;-55
2021/11/24 07:04:53;;;;;;;9.93;4.57;;;;;;;;;;5014072;28;20049;-54
2021/11/24 07:07:19;;;;;;;14.90;5.95;;;;;;;;;;5010275;28;20052;-56
2021/11/24 07:09:46;;;;;;;9.15;4.50;;;;;;;;;;5013965;28;20060;-58
2021/11/24 07:12:14;;;;;;;10.10;5.10;;;;;;;;;;5013569;28;20069;-55
2021/11/24 07:14:40;;;;;;;9.00;4.07;;;;;;;;;;5033939;28;20034;-58
2021/11/24 07:17:07;;;;;;;8.90;4.00;;;;;;;;;;5008193;28;20052;-57
2021/11/24 07:19:35;;;;;;;9.25;4.47;;;;;;;;;;5006309;28;20030;-54
2021/11/24 07:22:01;;;;;;;9.32;4.32;;;;;;;;;;5003387;28;20049;-57
2021/11/24 07:24:29;;;;;;;8.25;3.47;;;;;;;;;;5007075;28;20123;-57
2021/11/24 07:26:55;;;;;;;9.70;4.65;;;;;;;;;;5001136;28;20155;-56
2021/11/24 07:29:24;;;;;;;9.85;4.60;;;;;;;;;;4988911;28;20039;-58
2021/11/24 07:31:51;;;;;;;8.05;4.10;;;;;;;;;;4987282;28;20132;-57
2021/11/24 07:34:17;;;;;;;12.63;4.65;;;;;;;;;;5016370;28;20057;-56
2021/11/24 07:36:44;;;;;;;7.78;3.90;;;;;;;;;;5006912;28;20049;-54
2021/11/24 07:39:11;;;;;;;10.63;4.40;;;;;;;;;;5003220;28;20050;-58
2021/11/24 07:41:38;;;;;;;9.65;4.28;;;;;;;;;;5005742;28;20041;-54
2021/11/24 07:44:05;;;;;;;8.30;3.70;;;;;;;;;;5001290;28;20034;-57
2021/11/24 07:46:32;;;;;;;7.57;3.28;;;;;;;;;;5006243;28;20052;-58
2021/11/24 07:48:59;;;;;;;12.67;4.67;;;;;;;;;;4990833;28;20042;-57
2021/11/24 07:51:28;;;;;;;10.23;4.60;;;;;;;;;;4986211;28;20057;-57
2021/11/24 07:53:55;;;;;;;9.32;4.13;;;;;;;;;;4992689;28;20053;-57
2021/11/24 07:56:21;;;;;;;8.88;4.47;;;;;;;;;;5005567;28;20053;-56
2021/11/24 07:58:54;;;;;;;8.23;3.63;;;;;;;;;;5001988;28;20362;-55
2021/11/24 08:01:20;;;;;;;7.97;3.50;;;;;;;;;;5005481;28;20045;-56
2021/11/24 08:03:48;;;;;;;8.73;3.30;;;;;;;;;;5001864;28;20045;-56
2021/11/24 08:06:14;;;;;;;9.40;4.35;;;;;;;;;;5003276;28;20042;-58
2021/11/24 08:08:43;;;;;;;8.45;4.05;;;;;;;;;;5000296;28;20057;-54
2021/11/24 08:11:09;;;;;;;;;;;;;;;;;;4958831;28;20026;-55
2021/11/24 08:13:36;;;;;;;6.53;2.85;;;;;;;;;;4997307;28;19925;-57
2021/11/24 08:16:02;;;;;;;8.40;3.63;;;;;;;;;;5001342;28;20046;-56
2021/11/24 08:18:29;;;;;;;10.25;3.97;;;;;;;;;;4985288;28;20046;-55
2021/11/24 08:20:57;;;;;;;7.97;3.33;;;;;;;;;;4999376;28;20049;-57
2021/11/24 08:23:23;;;;;;;7.37;3.53;;;;;;;;;;5004711;28;20046;-57
2021/11/24 08:25:50;;;;;;;7.03;2.90;;;;;;;;;;5005653;28;20041;-58
2021/11/24 08:28:17;;;;;;;6.75;2.78;;;;;;;;;;4985150;28;20054;-54
2021/11/24 08:30:44;;;;;;;6.47;3.00;;;;;;;;;;4995440;28;20104;-57
2021/11/24 08:33:10;;;;;;;8.07;3.08;;;;;;;;;;5000199;28;20041;-53
2021/11/24 08:35:37;;;;;;;6.68;3.00;;;;;;;;;;4993339;28;20061;-56
2021/11/24 08:38:06;;;;;;;8.10;2.67;;;;;;;;;;5005228;28;20049;-54
2021/11/24 08:40:32;;;;;;;6.38;2.63;;;;;;;;;;4994190;28;20053;-54
2021/11/24 08:42:59;;;;;;;9.25;2.58;;;;;;;;;;4985189;28;20035;-53
2021/11/24 08:45:25;;;;;;;7.10;3.33;;;;;;;;;;4984691;28;20042;-57
2021/11/24 08:47:53;;;;;;;8.45;3.45;;;;;;;;;;5003815;28;20050;-56
2021/11/24 08:50:20;;;;;;;7.88;3.33;;;;;;;;;;4986411;28;20038;-55
2021/11/24 08:52:47;;;;;;;6.63;2.90;;;;;;;;;;5006693;28;20037;-58
2021/11/24 08:55:16;;;;;;;7.05;3.05;;;;;;;;;;5002430;28;20034;-57
2021/11/24 08:57:45;;;;;;;10.73;3.85;;;;;;;;;;4988889;28;20054;-57
2021/11/24 09:00:14;;;;;;;8.18;3.60;;;;;;;;;;4985338;28;20042;-57
2021/11/24 09:02:41;;;;;;;;;;;;;;;;;;5003687;28;20033;-55
2021/11/24 09:05:08;;;;;;;5.63;2.60;;;;;;;;;;5004032;28;19936;-58
2021/11/24 09:07:35;;;;;;;7.90;3.10;;;;;;;;;;5001432;28;20049;-54
2021/11/24 09:10:02;;;;;;;8.02;3.50;;;;;;;;;;5005588;28;20122;-58
2021/11/24 09:12:30;;;;;;;7.45;3.42;;;;;;;;;;4994441;28;20066;-54
2021/11/24 09:14:57;;;;;;;8.13;3.53;;;;;;;;;;5005189;28;20042;-58
2021/11/24 09:17:23;;;;;;;6.00;2.50;;;;;;;;;;5001508;28;20413;-58
2021/11/24 09:19:50;;;;;;;7.40;3.20;;;;;;;;;;5004958;28;20118;-58
2021/11/24 09:22:16;;;;;;;9.57;3.60;;;;;;;;;;5000123;28;20045;-57
2021/11/24 09:24:43;;;;;;;8.07;4.00;;;;;;;;;;5003680;28;20072;-57
2021/11/24 09:27:14;;;;;;;6.97;3.30;;;;;;;;;;4995325;28;20085;-56
2021/11/24 09:29:42;;;;;;;6.75;3.38;;;;;;;;;;4985085;28;20034;-56
2021/11/24 09:32:10;;;;;;;7.95;3.38;;;;;;;;;;4981973;28;20242;-57
2021/11/24 09:34:36;;;;;;;10.82;4.72;;;;;;;;;;5000355;28;20062;-55
2021/11/24 09:37:03;;;;;;;12.85;4.13;;;;;;;;;;4997267;28;20046;-57
2021/11/24 09:39:30;;;;;;;7.90;3.53;;;;;;;;;;5001558;28;20050;-57
2021/11/24 09:41:58;;;;;;;5.57;2.65;;;;;;;;;;4998720;28;20058;-57
2021/11/24 09:44:25;;;;;;;5.95;2.50;;;;;;;;;;5005212;28;20056;-55
2021/11/24 09:46:53;;;;;;;8.38;3.60;;;;;;;;;;5005780;28;20065;-57
2021/11/24 09:49:20;;;;;;;6.28;2.90;;;;;;;;;;4984707;28;20094;-56
2021/11/24 09:51:47;;;;;;;7.95;3.17;;;;;;;;;;4986265;28;20050;-54
2021/11/24 09:54:17;;;;;;;6.57;2.85;;;;;;;;;;4996799;28;20041;-54
2021/11/24 09:56:45;;;;;;;5.85;2.88;;;;;;;;;;5004973;28;20053;-54
2021/11/24 09:59:13;;;;;;;6.10;2.90;;;;;;;;;;5011159;28;20045;-56
2021/11/24 10:01:41;;;;;;;6.45;3.10;;;;;;;;;;5003892;28;20042;-58
2021/11/24 10:04:09;;;;;;;9.20;3.10;;;;;;;;;;4989200;28;20053;-53
2021/11/24 10:06:37;;;;;;;6.47;3.05;;;;;;;;;;4983608;28;20038;-57
2021/11/24 10:09:04;;;;;;;6.07;2.85;;;;;;;;;;4991937;28;20041;-56
2021/11/24 10:11:31;;;;;;;7.00;2.70;;;;;;;;;;5004244;28;20153;-56
2021/11/24 10:13:57;;;;;;;10.60;3.70;;;;;;;;;;4996670;28;20034;-55
2021/11/24 10:16:25;;;;;;;7.75;3.53;;;;;;;;;;5002016;28;20042;-57
2021/11/24 10:18:59;;;;;;;6.35;2.63;;;;;;;;;;5000230;28;20090;-55
2021/11/24 10:21:28;;;;;;;7.90;3.45;;;;;;;;;;5007305;28;20037;-58
2021/11/24 10:23:58;;;;;;;7.28;3.17;;;;;;;;;;5001691;28;20061;-53
2021/11/24 10:26:27;;;;;;;8.35;3.70;;;;;;;;;;5004778;28;20041;-57
2021/11/24 10:28:55;;;;;;;7.25;3.25;;;;;;;;;;4997116;28;20057;-57
2021/11/24 10:31:25;;;;;;;7.45;3.33;;;;;;;;;;5003611;28;20087;-55
2021/11/24 10:33:52;;;;;;;5.75;2.72;;;;;;;;;;4999096;28;20054;-57
2021/11/24 10:36:19;;;;;;;7.40;3.38;;;;;;;;;;5003524;28;20045;-56
2021/11/24 10:38:49;;;;;;;7.15;3.13;;;;;;;;;;5002808;28;20046;-57
2021/11/24 10:41:26;;;;;;;7.72;3.00;;;;;;;;;;4999191;28;20045;-56
2021/11/24 10:43:53;;;;;;;6.60;2.80;;;;;;;;;;4984930;28;20057;-57
2021/11/24 10:46:23;;;;;;;6.30;2.97;;;;;;;;;;4995836;28;20049;-57
2021/11/24 10:48:59;;;;;;;10.95;3.05;;;;;;;;;;5003822;28;20111;-55
2021/11/24 10:51:29;;;;;;;6.72;2.58;;;;;;;;;;4998755;28;20042;-58
2021/11/24 10:54:11;;;;;;;7.55;2.75;;;;;;;;;;5003573;28;20128;-55
2021/11/24 10:56:52;;;;;;;5.20;2.53;;;;;;;;;;4998749;28;20119;-58
2021/11/24 10:59:19;;;;;;;6.05;2.38;;;;;;;;;;5003716;28;20033;-57
2021/11/24 11:01:46;;;;;;;4.55;2.20;;;;;;;;;;4986754;28;20053;-57
2021/11/24 11:04:13;;;;;;;4.82;2.17;;;;;;;;;;4985898;28;20078;-56
2021/11/24 11:06:40;;;;;;;5.72;2.30;;;;;;;;;;4996003;28;20103;-55
2021/11/24 11:09:07;;;;;;;5.00;2.30;;;;;;;;;;5007008;28;20045;-56
2021/11/24 11:11:36;;;;;;;5.63;2.35;;;;;;;;;;4998599;28;20061;-55
2021/11/24 11:14:17;;;;;;;6.75;2.20;;;;;;;;;;5007039;28;20061;-52
2021/11/24 11:16:47;;;;;;;5.53;2.33;;;;;;;;;;4985208;28;20082;-55
2021/11/24 11:19:33;;;;;;;5.53;2.38;;;;;;;;;;4987733;28;20038;-54
2021/11/24 11:22:01;;;;;;;5.60;2.55;;;;;;;;;;4992893;28;20037;-55
2021/11/24 11:24:27;;;;;;;6.40;2.83;;;;;;;;;;5003825;28;20045;-56
2021/11/24 11:26:56;;;;;;;6.93;3.00;;;;;;;;;;4994269;28;20038;-57
2021/11/24 11:29:23;;;;;;;5.63;2.60;;;;;;;;;;4986202;28;20058;-55
2021/11/24 11:31:50;;;;;;;6.35;2.45;;;;;;;;;;4988182;28;20045;-56
2021/11/24 11:34:17;;;;;;;6.47;2.70;;;;;;;;;;5002371;28;20046;-53
2021/11/24 11:36:43;;;;;;;7.40;3.03;;;;;;;;;;5001017;28;20034;-53
2021/11/24 11:39:11;;;;;;;6.13;2.60;;;;;;;;;;5004581;28;20049;-57
2021/11/24 11:41:39;;;;;;;6.60;2.90;;;;;;;;;;5000108;28;20117;-56
2021/11/24 11:44:07;;;;;;;5.45;2.38;;;;;;;;;;4985820;28;20052;-58
2021/11/24 11:46:35;;;;;;;6.37;2.47;;;;;;;;;;4988606;28;20107;-56
2021/11/24 11:49:12;;;;;;;5.85;2.47;;;;;;;;;;4986044;28;20053;-59
2021/11/24 11:51:40;;;;;;;6.97;2.67;;;;;;;;;;5004732;28;20046;-57
2021/11/24 11:54:06;;;;;;;6.57;2.42;;;;;;;;;;5000455;28;20118;-58
2021/11/24 11:56:35;;;;;;;9.13;3.78;;;;;;;;;;5007395;28;20034;-58
2021/11/24 11:59:04;;;;;;;8.98;3.33;;;;;;;;;;5000973;28;20056;-57
2021/11/24 12:01:30;;;;;;;;;;;;;;;;;;5024240;28;20095;-57
2021/11/24 12:04:03;;;;;;;7.00;2.72;;;;;;;;;;5000504;28;19921;-57
2021/11/24 12:06:30;;;;;;;6.93;2.75;;;;;;;;;;5023624;28;20061;-55
2021/11/24 12:09:15;;;;;;;5.43;2.65;;;;;;;;;;4991983;28;20050;-56
2021/11/24 12:12:01;;;;;;;6.25;2.67;;;;;;;;;;4986793;28;20042;-56
2021/11/24 12:14:48;;;;;;;8.25;3.05;;;;;;;;;;5001778;28;20045;-53
2021/11/24 12:17:39;;;;;;;7.35;3.60;;;;;;;;;;5005517;28;20283;-58
2021/11/24 12:20:23;;;;;;;7.18;3.30;;;;;;;;;;5000631;28;20050;-55
2021/11/24 12:22:54;;;;;;;8.05;3.75;;;;;;;;;;5003266;28;20045;-55
2021/11/24 12:25:40;;;;;;;6.95;2.55;;;;;;;;;;5002696;28;20061;-55
2021/11/24 12:28:12;;;;;;;9.32;3.03;;;;;;;;;;5022287;28;20115;-54
2021/11/24 12:30:57;;;;;;;8.35;2.65;;;;;;;;;;4997689;28;20053;-56
2021/11/24 12:33:25;;;;;;;7.10;2.78;;;;;;;;;;5005713;28;20049;-54
2021/11/24 12:35:53;;;;;;;6.40;2.67;;;;;;;;;;4982518;28;20026;-57
2021/11/24 12:38:23;;;;;;;6.88;3.03;;;;;;;;;;4986340;28;20116;-57
2021/11/24 12:40:50;;;;;;;8.25;3.33;;;;;;;;;;4998221;28;20056;-56
2021/11/24 12:43:19;;;;;;;8.38;3.20;;;;;;;;;;5023537;28;20041;-59
2021/11/24 12:45:45;;;;;;;;;;;;;;;;;;5016233;28;20053;-56
2021/11/24 12:48:13;;;;;;;6.45;2.53;;;;;;;;;;5003797;28;20022;-58
2021/11/24 12:50:39;;;;;;;8.38;3.10;;;;;;;;;;4989650;28;20049;-58
2021/11/24 12:53:06;;;;;;;5.63;2.67;;;;;;;;;;4984733;28;20050;-56
2021/11/24 12:55:36;;;;;;;7.28;3.22;;;;;;;;;;4992923;28;20116;-56
2021/11/24 12:58:20;;;;;;;6.05;2.88;;;;;;;;;;5005171;28;20101;-57
2021/11/24 13:00:46;;;;;;;7.22;3.00;;;;;;;;;;5001596;28;20050;-56
2021/11/24 13:03:13;;;;;;;6.78;2.85;;;;;;;;;;5005446;28;20041;-56
2021/11/24 13:05:40;;;;;;;10.73;3.60;;;;;;;;;;4995523;28;20053;-56
2021/11/24 13:08:07;;;;;;;6.05;2.60;;;;;;;;;;4986996;28;20034;-57
2021/11/24 13:10:35;;;;;;;6.78;2.78;;;;;;;;;;4986664;28;20049;-55
2021/11/24 13:13:08;;;;;;;11.60;4.10;;;;;;;;;;5023520;28;20045;-60
2021/11/24 13:15:35;;;;;;;9.05;3.90;;;;;;;;;;5001004;28;21322;-59
2021/11/24 13:18:02;;;;;;;6.88;2.78;;;;;;;;;;4987628;28;20111;-57
2021/11/24 13:20:31;;;;;;;6.50;2.80;;;;;;;;;;4979645;28;20124;-57
2021/11/24 13:22:59;;;;;;;8.20;2.90;;;;;;;;;;5003369;28;20050;-57
2021/11/24 13:25:28;;;;;;;8.85;3.80;;;;;;;;;;5004329;28;20046;-56
2021/11/24 13:27:57;;;;;;;6.50;2.85;;;;;;;;;;5002372;28;20087;-57
2021/11/24 13:30:24;;;;;;;8.57;3.70;;;;;;;;;;5021286;28;20136;-58
2021/11/24 13:32:58;;;;;;;5.78;2.72;;;;;;;;;;5000393;28;20033;-55
2021/11/24 13:35:24;;;;;;;8.57;2.92;;;;;;;;;;5022114;28;20053;-57
2021/11/24 13:37:53;;;;;;;6.05;2.53;;;;;;;;;;4996582;28;20131;-56
2021/11/24 13:40:31;;;;;;;10.15;4.18;;;;;;;;;;5001842;28;20038;-59
2021/11/24 13:42:59;;;;;;;7.43;3.25;;;;;;;;;;5000224;28;20057;-58
2021/11/24 13:45:30;;;;;;;6.53;3.07;;;;;;;;;;5005351;28;20046;-58
2021/11/24 13:48:07;;;;;;;6.60;3.13;;;;;;;;;;4989518;28;20279;-58
2021/11/24 13:50:34;;;;;;;7.40;3.10;;;;;;;;;;4984398;28;20046;-58
2021/11/24 13:53:15;;;;;;;10.82;4.13;;;;;;;;;;4992919;28;20054;-55
2021/11/24 13:55:41;;;;;;;7.63;2.88;;;;;;;;;;5004068;28;20123;-55
2021/11/24 13:58:11;;;;;;;11.35;4.88;;;;;;;;;;5017104;28;20146;-53
2021/11/24 14:00:38;;;;;;;6.15;3.00;;;;;;;;;;5002531;28;20041;-56
2021/11/24 14:03:04;;;;;;;9.63;4.28;;;;;;;;;;5000809;28;20045;-54
2021/11/24 14:05:34;;;;;;;10.65;4.18;;;;;;;;;;5004611;28;20057;-56
2021/11/24 14:08:01;;;;;;;9.60;4.18;;;;;;;;;;4994670;28;20061;-55
2021/11/24 14:10:29;;;;;;;10.38;4.30;;;;;;;;;;5004247;28;20053;-57
2021/11/24 14:12:57;;;;;;;12.27;4.82;;;;;;;;;;4994558;28;20034;-57
2021/11/24 14:15:26;;;;;;;7.68;2.92;;;;;;;;;;5005490;28;20045;-59
2021/11/24 14:17:53;;;;;;;10.75;4.50;;;;;;;;;;4997139;28;20090;-58
2021/11/24 14:20:25;;;;;;;6.13;2.90;;;;;;;;;;4984684;28;20066;-58
2021/11/24 14:22:56;;;;;;;7.50;3.33;;;;;;;;;;4982293;28;20042;-58
2021/11/24 14:25:24;;;;;;;11.07;3.92;;;;;;;;;;4984715;28;20038;-55
2021/11/24 14:27:53;;;;;;;10.45;5.07;;;;;;;;;;4984615;28;20042;-56
2021/11/24 14:30:20;;;;;;;7.95;3.70;;;;;;;;;;5000913;28;20042;-57
2021/11/24 14:32:49;;;;;;;7.13;3.22;;;;;;;;;;5005062;28;20038;-58
2021/11/24 14:35:16;;;;;;;7.07;3.33;;;;;;;;;;4999784;28;20164;-58
2021/11/24 14:37:50;;;;;;;10.55;3.90;;;;;;;;;;5026445;28;20065;-60
2021/11/24 14:40:18;;;;;;;8.13;3.05;;;;;;;;;;5002214;28;20089;-58
2021/11/24 14:42:45;;;;;;;10.68;3.85;;;;;;;;;;5008611;28;20111;-60
2021/11/24 14:45:11;;;;;;;7.78;3.30;;;;;;;;;;5003193;28;20049;-59